| time (UTC) | temp F | wind direction | speed MPH | gust MPH | rain 1hr in | rain 24hr in | rain mn in | humidity % | barometer mb |
| 20260510093037 | 47 | 19 | 0.0 | 0.0 | 0.00 | 0.34 | 0.00 | 87 | 1011.1 |
| 20260510091537 | 47 | 19 | 0.0 | 0.0 | 0.00 | 0.34 | 0.00 | 87 | 1010.7 |
| 20260510090031 | 47 | 19 | 0.0 | 0.0 | 0.00 | 0.34 | 0.00 | 86 | 1010.5 |
| 20260510084534 | 47 | 19 | 0.0 | 0.0 | 0.00 | 0.34 | 0.00 | 86 | 1010.3 |
| 20260510083027 | 48 | 19 | 0.0 | 0.0 | 0.00 | 0.34 | 0.00 | 84 | 1010.2 |
| 20260510081524 | 48 | 19 | 0.0 | 0.0 | 0.00 | 0.34 | 0.00 | 83 | 1010.0 |
| 20260510080021 | 49 | 19 | 0.0 | 0.0 | 0.00 | 0.34 | 0.00 | 82 | 1009.8 |
| 20260510074519 | 49 | 19 | 0.0 | 1.0 | 0.00 | 0.35 | 0.00 | 81 | 1009.4 |
| 20260510073017 | 49 | 18 | 0.0 | 1.0 | 0.00 | 0.35 | 0.00 | 81 | 1009.2 |
| 20260510071519 | 49 | 17 | 0.0 | 5.0 | 0.00 | 0.35 | 0.00 | 82 | 1009.2 |
| 20260510070015 | 50 | 360 | 1.0 | 6.0 | 0.00 | 0.35 | 0.00 | 86 | 1008.8 |
| 20260510064526 | 50 | 21 | 1.0 | 8.0 | 0.00 | 0.37 | 0.00 | 90 | 1008.5 |
| 20260510063008 | 51 | 10 | 2.0 | 9.0 | 0.00 | 0.37 | 0.00 | 91 | 1008.5 |
| 20260510061509 | 52 | 26 | 1.0 | 9.0 | 0.00 | 0.37 | 0.00 | 92 | 1008.6 |
| 20260510060100 | 54 | 173 | 0.0 | 0.0 | 0.00 | 0.37 | 0.00 | 93 | 1008.2 |
| 20260510054557 | 53 | 173 | 0.0 | 0.0 | 0.00 | 0.46 | 0.00 | 92 | 1007.9 |
| 20260510053056 | 53 | 173 | 0.0 | 0.0 | 0.00 | 0.46 | 0.00 | 92 | 1007.9 |
| 20260510051557 | 54 | 173 | 0.0 | 0.0 | 0.00 | 0.46 | 0.00 | 92 | 1007.6 |
| 20260510050052 | 54 | 173 | 0.0 | 0.0 | 0.00 | 0.46 | 0.00 | 92 | 1007.4 |
| 20260510044549 | 54 | 173 | 0.0 | 1.0 | 0.00 | 0.51 | 0.00 | 92 | 1006.7 |
| 20260510043048 | 54 | 173 | 0.0 | 1.0 | 0.00 | 0.51 | 0.00 | 91 | 1006.5 |
| 20260510041545 | 54 | 172 | 0.0 | 0.0 | 0.01 | 0.51 | 0.00 | 91 | 1006.6 |
| 20260510040133 | 55 | 172 | 0.0 | 0.0 | 0.04 | 0.51 | 0.00 | 91 | 1006.4 |
| 20260510034632 | 55 | 172 | 0.0 | 0.0 | 0.04 | 0.52 | 0.51 | 91 | 1006.4 |
| 20260510033140 | 55 | 173 | 0.0 | 2.0 | 0.04 | 0.52 | 0.51 | 91 | 1006.7 |
| 20260510031553 | 55 | 178 | 0.0 | 7.0 | 0.05 | 0.51 | 0.50 | 92 | 1006.7 |
| 20260510030053 | 54 | 238 | 0.0 | 1.0 | 0.13 | 0.48 | 0.47 | 91 | 1006.6 |
| 20260510024554 | 55 | 281 | 0.0 | 0.0 | 0.13 | 0.48 | 0.47 | 91 | 1006.6 |
| 20260510023051 | 55 | 281 | 0.0 | 1.0 | 0.13 | 0.48 | 0.47 | 91 | 1006.2 |
| 20260510021551 | 54 | 192 | 1.0 | 6.0 | 0.10 | 0.45 | 0.44 | 91 | 1007.5 |
| 20260510020055 | 54 | 171 | 0.0 | 0.0 | 0.00 | 0.35 | 0.34 | 90 | 1006.1 |
| 20260510014550 | 54 | 171 | 0.0 | 0.0 | 0.00 | 0.37 | 0.34 | 90 | 1005.9 |
| 20260510013049 | 54 | 171 | 0.0 | 0.0 | 0.00 | 0.37 | 0.34 | 90 | 1005.8 |
| 20260510011549 | 55 | 171 | 0.0 | 0.0 | 0.00 | 0.37 | 0.34 | 89 | 1005.6 |
| 20260510010049 | 55 | 171 | 0.0 | 0.0 | 0.00 | 0.37 | 0.34 | 89 | 1005.6 |
| 20260510004548 | 55 | 171 | 0.0 | 0.0 | 0.00 | 0.41 | 0.34 | 89 | 1005.4 |
| 20260510003100 | 56 | 171 | 0.0 | 0.0 | 0.01 | 0.41 | 0.34 | 89 | 1005.5 |
| 20260510001547 | 56 | 171 | 0.0 | 1.0 | 0.02 | 0.41 | 0.34 | 88 | 1005.3 |
| 20260510000048 | 56 | 169 | 0.0 | 4.0 | 0.14 | 0.41 | 0.34 | 87 | 1005.5 |
| 20260509234547 | 56 | 198 | 1.0 | 5.0 | 0.17 | 0.47 | 0.34 | 85 | 1005.5 |
| 20260509233046 | 58 | 26 | 0.0 | 2.0 | 0.16 | 0.46 | 0.33 | 81 | 1005.8 |
| 20260509231547 | 59 | 313 | 0.0 | 9.0 | 0.14 | 0.44 | 0.31 | 77 | 1005.7 |
| 20260509230051 | 64 | 257 | 0.0 | 8.0 | 0.02 | 0.32 | 0.19 | 68 | 1006.1 |
| 20260509224554 | 67 | 317 | 0.0 | 10.0 | 0.00 | 0.42 | 0.17 | 56 | 1003.5 |
| 20260509223048 | 67 | 192 | 4.0 | 11.0 | 0.00 | 0.42 | 0.17 | 56 | 1002.8 |
| 20260509221542 | 67 | 46 | 0.0 | 12.0 | 0.00 | 0.42 | 0.17 | 57 | 1002.9 |
| 20260509220042 | 67 | 200 | 3.0 | 13.0 | 0.00 | 0.42 | 0.17 | 57 | 1002.9 |
| 20260509214543 | 67 | 228 | 4.0 | 17.0 | 0.00 | 0.47 | 0.17 | 57 | 1002.9 |
| 20260509213042 | 68 | 210 | 3.0 | 10.0 | 0.00 | 0.47 | 0.17 | 57 | 1003.0 |
| 20260509211540 | 68 | 115 | 6.0 | 12.0 | 0.00 | 0.47 | 0.17 | 57 | 1002.8 |
| 20260509210044 | 68 | 190 | 1.0 | 12.0 | 0.00 | 0.47 | 0.17 | 57 | 1003.2 |
| 20260509204535 | 68 | 224 | 4.0 | 15.0 | 0.00 | 0.50 | 0.17 | 59 | 1003.5 |
| 20260509203045 | 68 | 207 | 2.0 | 18.0 | 0.00 | 0.50 | 0.17 | 61 | 1003.7 |
| 20260509201532 | 68 | 224 | 2.0 | 11.0 | 0.00 | 0.50 | 0.17 | 61 | 1004.0 |
| 20260509200032 | 68 | 226 | 2.0 | 14.0 | 0.00 | 0.50 | 0.17 | 60 | 1004.1 |
| 20260509194533 | 68 | 223 | 4.0 | 15.0 | 0.00 | 0.50 | 0.17 | 59 | 1004.4 |
| 20260509193029 | 68 | 250 | 2.0 | 13.0 | 0.00 | 0.50 | 0.17 | 61 | 1004.5 |
| 20260509191526 | 67 | 256 | 0.0 | 9.0 | 0.00 | 0.50 | 0.17 | 64 | 1004.7 |
| 20260509190023 | 67 | 197 | 2.0 | 10.0 | 0.00 | 0.50 | 0.17 | 64 | 1005.1 |
| 20260509184534 | 66 | 200 | 4.0 | 13.0 | 0.00 | 0.50 | 0.17 | 63 | 1005.2 |
| 20260509183021 | 65 | 211 | 1.0 | 10.0 | 0.00 | 0.50 | 0.17 | 66 | 1005.2 |
| 20260509181520 | 66 | 213 | 4.0 | 9.0 | 0.00 | 0.50 | 0.17 | 64 | 1005.2 |
| 20260509180022 | 66 | 213 | 4.0 | 13.0 | 0.00 | 0.50 | 0.17 | 64 | 1005.1 |
| 20260509174516 | 65 | 202 | 2.0 | 10.0 | 0.00 | 0.50 | 0.17 | 65 | 1005.2 |
| 20260509173017 | 64 | 202 | 3.0 | 10.0 | 0.00 | 0.50 | 0.17 | 65 | 1005.6 |
| 20260509171514 | 64 | 200 | 4.0 | 10.0 | 0.00 | 0.50 | 0.17 | 65 | 1005.5 |
| 20260509170014 | 64 | 208 | 2.0 | 8.0 | 0.00 | 0.50 | 0.17 | 67 | 1005.4 |
| 20260509164509 | 63 | 211 | 2.0 | 8.0 | 0.00 | 0.50 | 0.17 | 67 | 1005.4 |
| 20260509163007 | 63 | 186 | 5.0 | 12.0 | 0.00 | 0.50 | 0.17 | 69 | 1005.6 |
| 20260509161505 | 62 | 245 | 0.0 | 7.0 | 0.00 | 0.50 | 0.17 | 67 | 1006.0 |
| 20260509160005 | 63 | 217 | 3.0 | 11.0 | 0.00 | 0.50 | 0.17 | 70 | 1006.1 |
| 20260509154614 | 62 | 233 | 0.0 | 7.0 | 0.00 | 0.50 | 0.17 | 74 | 1006.1 |
| 20260509153109 | 62 | 207 | 1.0 | 8.0 | 0.00 | 0.50 | 0.17 | 78 | 1006.1 |
| 20260509151601 | 61 | 196 | 1.0 | 7.0 | 0.00 | 0.50 | 0.17 | 86 | 1005.9 |
| 20260509150050 | 58 | 186 | 0.0 | 9.0 | 0.00 | 0.50 | 0.17 | 90 | 1006.0 |
| 20260509144546 | 57 | 208 | 0.0 | 8.0 | 0.00 | 0.50 | 0.17 | 92 | 1006.1 |
| 20260509143046 | 56 | 204 | 0.0 | 5.0 | 0.00 | 0.50 | 0.17 | 94 | 1006.0 |
| 20260509141545 | 55 | 205 | 0.0 | 4.0 | 0.00 | 0.50 | 0.17 | 94 | 1006.0 |
| 20260509140037 | 54 | 200 | 0.0 | 5.0 | 0.00 | 0.50 | 0.17 | 94 | 1006.1 |
| 20260509134536 | 54 | 185 | 0.0 | 4.0 | 0.00 | 0.50 | 0.17 | 94 | 1006.2 |
| 20260509133048 | 54 | 193 | 0.0 | 6.0 | 0.00 | 0.50 | 0.17 | 95 | 1006.1 |
| 20260509131520 | 54 | 157 | 1.0 | 9.0 | 0.00 | 0.50 | 0.17 | 95 | 1006.2 |
| 20260509130033 | 53 | 173 | 0.0 | 5.0 | 0.00 | 0.50 | 0.17 | 95 | 1006.2 |
| 20260509124532 | 53 | 201 | 1.0 | 5.0 | 0.00 | 0.50 | 0.17 | 95 | 1006.3 |
| 20260509123033 | 53 | 180 | 0.0 | 5.0 | 0.00 | 0.50 | 0.17 | 95 | 1006.5 |
| 20260509121531 | 53 | 167 | 1.0 | 5.0 | 0.00 | 0.50 | 0.17 | 95 | 1006.6 |
| 20260509120026 | 52 | 184 | 0.0 | 5.0 | 0.00 | 0.50 | 0.17 | 95 | 1006.5 |
| 20260509114532 | 52 | 177 | 0.0 | 3.0 | 0.00 | 0.50 | 0.17 | 95 | 1006.6 |
| 20260509113024 | 52 | 175 | 0.0 | 4.0 | 0.00 | 0.50 | 0.17 | 95 | 1006.6 |
| 20260509111523 | 52 | 185 | 0.0 | 3.0 | 0.00 | 0.50 | 0.17 | 95 | 1006.4 |
| 20260509110020 | 52 | 184 | 0.0 | 4.0 | 0.00 | 0.50 | 0.17 | 95 | 1006.5 |
| 20260509104519 | 52 | 189 | 0.0 | 4.0 | 0.00 | 0.51 | 0.17 | 95 | 1006.3 |
| 20260509103018 | 52 | 257 | 0.0 | 1.0 | 0.00 | 0.51 | 0.17 | 95 | 1006.2 |
| 20260509101528 | 52 | 167 | 0.0 | 0.0 | 0.00 | 0.51 | 0.17 | 95 | 1006.3 |
| 20260509100016 | 52 | 165 | 0.0 | 3.0 | 0.00 | 0.51 | 0.17 | 95 | 1006.3 |
| 20260509094518 | 52 | 157 | 0.0 | 0.0 | 0.00 | 0.51 | 0.17 | 95 | 1006.4 |